Terminal Aerodrome Forecast
Issued by NWS

Home | Current Version | Previous Version | Text Only | Print | Product List | Glossary On
Versions: 1 2 3 4 5 6 7 8 9 10 11 12 13 14 15 16 17
000
FTUS43 KICT 260500
TAFCNU
TAF
KCNU 260520Z 2606/2706 16006KT P6SM SKC
     FM261000 VRB03KT 5SM BR SCT006
      TEMPO 2610/2614 2SM BR BKN006
     FM261500 18014KT P6SM SCT250=

USA.gov is the U.S. government's official web portal to all federal, state and local government web resources and services.